sensor_id;sensor_type;location;lat;lon;timestamp;temperature;humidity
51867;DHT22;52862;52.504;13.480;2023-03-31T00:02:10;11.50;99.90
51867;DHT22;52862;52.504;13.480;2023-03-31T00:04:39;11.40;99.90
51867;DHT22;52862;52.504;13.480;2023-03-31T00:07:12;11.60;99.90
51867;DHT22;52862;52.504;13.480;2023-03-31T00:09:38;11.40;99.90
51867;DHT22;52862;52.504;13.480;2023-03-31T00:12:18;11.50;99.90
51867;DHT22;52862;52.504;13.480;2023-03-31T00:14:45;11.40;99.90
51867;DHT22;52862;52.504;13.480;2023-03-31T00:17:12;11.40;99.90
51867;DHT22;52862;52.504;13.480;2023-03-31T00:19:39;11.40;99.90
51867;DHT22;52862;52.504;13.480;2023-03-31T00:22:07;11.40;99.90
51867;DHT22;52862;52.504;13.480;2023-03-31T00:24:34;11.20;99.90
51867;DHT22;52862;52.504;13.480;2023-03-31T00:27:02;11.50;99.90
51867;DHT22;52862;52.504;13.480;2023-03-31T00:29:29;11.50;99.90
51867;DHT22;52862;52.504;13.480;2023-03-31T00:31:56;11.40;99.90
51867;DHT22;52862;52.504;13.480;2023-03-31T00:34:24;11.10;99.90
51867;DHT22;52862;52.504;13.480;2023-03-31T00:36:52;11.40;99.90
51867;DHT22;52862;52.504;13.480;2023-03-31T00:39:22;11.40;99.90
51867;DHT22;52862;52.504;13.480;2023-03-31T00:41:50;11.40;99.90
51867;DHT22;52862;52.504;13.480;2023-03-31T00:44:18;11.30;99.90
51867;DHT22;52862;52.504;13.480;2023-03-31T00:46:51;11.30;99.90
51867;DHT22;52862;52.504;13.480;2023-03-31T00:49:23;11.30;99.90
51867;DHT22;52862;52.504;13.480;2023-03-31T00:51:53;11.30;99.90
51867;DHT22;52862;52.504;13.480;2023-03-31T00:54:22;11.30;99.90
51867;DHT22;52862;52.504;13.480;2023-03-31T00:56:52;11.30;99.90
51867;DHT22;52862;52.504;13.480;2023-03-31T00:59:26;11.20;99.90
51867;DHT22;52862;52.504;13.480;2023-03-31T01:01:54;11.20;99.90
51867;DHT22;52862;52.504;13.480;2023-03-31T01:04:24;11.20;99.90
51867;DHT22;52862;52.504;13.480;2023-03-31T01:06:55;11.30;99.90
51867;DHT22;52862;52.504;13.480;2023-03-31T01:09:28;11.20;99.90
51867;DHT22;52862;52.504;13.480;2023-03-31T01:12:01;11.10;99.90
51867;DHT22;52862;52.504;13.480;2023-03-31T01:14:29;11.00;99.90
51867;DHT22;52862;52.504;13.480;2023-03-31T01:16:56;11.10;99.90
51867;DHT22;52862;52.504;13.480;2023-03-31T01:19:36;11.00;99.90
51867;DHT22;52862;52.504;13.480;2023-03-31T01:22:54;10.90;99.90
51867;DHT22;52862;52.504;13.480;2023-03-31T01:25:50;10.90;99.90
51867;DHT22;52862;52.504;13.480;2023-03-31T01:28:26;10.90;99.90
51867;DHT22;52862;52.504;13.480;2023-03-31T01:31:20;10.80;99.90
51867;DHT22;52862;52.504;13.480;2023-03-31T01:34:16;10.80;99.90
51867;DHT22;52862;52.504;13.480;2023-03-31T01:37:29;10.70;99.90
51867;DHT22;52862;52.504;13.480;2023-03-31T01:40:32;10.70;99.90
51867;DHT22;52862;52.504;13.480;2023-03-31T01:43:03;10.70;99.90
51867;DHT22;52862;52.504;13.480;2023-03-31T01:45:42;10.70;99.90
51867;DHT22;52862;52.504;13.480;2023-03-31T01:48:14;10.70;99.90
51867;DHT22;52862;52.504;13.480;2023-03-31T01:50:45;10.70;99.90
51867;DHT22;52862;52.504;13.480;2023-03-31T01:53:17;10.80;99.90
51867;DHT22;52862;52.504;13.480;2023-03-31T01:55:50;10.90;99.90
51867;DHT22;52862;52.504;13.480;2023-03-31T01:58:20;10.70;99.90
51867;DHT22;52862;52.504;13.480;2023-03-31T02:00:52;12.40;99.90
51867;DHT22;52862;52.504;13.480;2023-03-31T02:03:24;10.70;99.90
51867;DHT22;52862;52.504;13.480;2023-03-31T02:05:56;10.60;99.90
51867;DHT22;52862;52.504;13.480;2023-03-31T02:08:28;10.50;99.90
51867;DHT22;52862;52.504;13.480;2023-03-31T02:10:56;10.70;99.90
51867;DHT22;52862;52.504;13.480;2023-03-31T02:13:25;10.70;99.90
51867;DHT22;52862;52.504;13.480;2023-03-31T02:15:56;10.70;99.90
51867;DHT22;52862;52.504;13.480;2023-03-31T02:18:26;10.80;99.90
51867;DHT22;52862;52.504;13.480;2023-03-31T02:20:56;10.60;99.90
51867;DHT22;52862;52.504;13.480;2023-03-31T02:23:27;10.70;99.90
51867;DHT22;52862;52.504;13.480;2023-03-31T02:26:00;10.60;99.90
51867;DHT22;52862;52.504;13.480;2023-03-31T02:28:28;10.60;99.90
51867;DHT22;52862;52.504;13.480;2023-03-31T02:31:05;10.70;99.90
51867;DHT22;52862;52.504;13.480;2023-03-31T02:33:33;10.60;99.90
51867;DHT22;52862;52.504;13.480;2023-03-31T02:36:00;10.60;99.90
51867;DHT22;52862;52.504;13.480;2023-03-31T02:38:27;10.90;99.90
51867;DHT22;52862;52.504;13.480;2023-03-31T02:40:57;11.00;99.90
51867;DHT22;52862;52.504;13.480;2023-03-31T02:43:23;11.10;99.90
51867;DHT22;52862;52.504;13.480;2023-03-31T02:45:50;10.60;99.90
51867;DHT22;52862;52.504;13.480;2023-03-31T02:48:19;10.70;99.90
51867;DHT22;52862;52.504;13.480;2023-03-31T02:53:52;10.40;99.90
51867;DHT22;52862;52.504;13.480;2023-03-31T02:56:38;10.70;99.90
51867;DHT22;52862;52.504;13.480;2023-03-31T02:59:16;10.60;99.90
51867;DHT22;52862;52.504;13.480;2023-03-31T03:01:56;10.60;99.90
51867;DHT22;52862;52.504;13.480;2023-03-31T03:04:41;10.70;99.90
51867;DHT22;52862;52.504;13.480;2023-03-31T03:07:21;10.30;99.90
51867;DHT22;52862;52.504;13.480;2023-03-31T03:09:58;10.80;99.90
51867;DHT22;52862;52.504;13.480;2023-03-31T03:12:31;11.70;99.90
51867;DHT22;52862;52.504;13.480;2023-03-31T03:15:02;10.70;99.90
51867;DHT22;52862;52.504;13.480;2023-03-31T03:17:33;10.80;99.90
51867;DHT22;52862;52.504;13.480;2023-03-31T03:20:02;10.80;99.90
51867;DHT22;52862;52.504;13.480;2023-03-31T03:22:33;10.90;99.90
51867;DHT22;52862;52.504;13.480;2023-03-31T03:24:59;10.80;99.90
51867;DHT22;52862;52.504;13.480;2023-03-31T03:27:27;10.80;99.90
51867;DHT22;52862;52.504;13.480;2023-03-31T03:29:54;10.80;99.90
51867;DHT22;52862;52.504;13.480;2023-03-31T03:32:21;10.80;99.90
51867;DHT22;52862;52.504;13.480;2023-03-31T03:34:47;10.80;99.90
51867;DHT22;52862;52.504;13.480;2023-03-31T03:37:14;10.80;99.90
51867;DHT22;52862;52.504;13.480;2023-03-31T03:39:41;10.80;99.90
51867;DHT22;52862;52.504;13.480;2023-03-31T03:42:07;10.80;99.90
51867;DHT22;52862;52.504;13.480;2023-03-31T03:44:35;10.90;99.90
51867;DHT22;52862;52.504;13.480;2023-03-31T03:47:01;11.00;99.90
51867;DHT22;52862;52.504;13.480;2023-03-31T03:49:28;10.80;99.90
51867;DHT22;52862;52.504;13.480;2023-03-31T03:51:55;10.90;99.90
51867;DHT22;52862;52.504;13.480;2023-03-31T03:54:22;10.90;99.90
51867;DHT22;52862;52.504;13.480;2023-03-31T03:56:48;10.90;99.90
51867;DHT22;52862;52.504;13.480;2023-03-31T03:59:15;10.90;99.90
51867;DHT22;52862;52.504;13.480;2023-03-31T04:01:43;11.50;99.90
51867;DHT22;52862;52.504;13.480;2023-03-31T04:04:09;11.00;99.90
51867;DHT22;52862;52.504;13.480;2023-03-31T04:06:36;10.90;99.90
51867;DHT22;52862;52.504;13.480;2023-03-31T04:09:03;10.90;99.90
51867;DHT22;52862;52.504;13.480;2023-03-31T04:11:30;10.90;99.90
51867;DHT22;52862;52.504;13.480;2023-03-31T04:13:57;10.90;99.90
51867;DHT22;52862;52.504;13.480;2023-03-31T04:16:23;10.80;99.90
51867;DHT22;52862;52.504;13.480;2023-03-31T04:18:51;10.90;99.90
51867;DHT22;52862;52.504;13.480;2023-03-31T04:21:22;10.90;99.90
51867;DHT22;52862;52.504;13.480;2023-03-31T04:23:50;11.00;99.90
51867;DHT22;52862;52.504;13.480;2023-03-31T04:26:25;10.90;99.90
51867;DHT22;52862;52.504;13.480;2023-03-31T04:28:56;10.90;99.90
51867;DHT22;52862;52.504;13.480;2023-03-31T04:31:26;10.90;99.90
51867;DHT22;52862;52.504;13.480;2023-03-31T04:33:56;10.90;99.90
51867;DHT22;52862;52.504;13.480;2023-03-31T04:36:27;10.60;99.90
51867;DHT22;52862;52.504;13.480;2023-03-31T04:38:56;10.90;99.90
51867;DHT22;52862;52.504;13.480;2023-03-31T04:41:24;10.80;99.90
51867;DHT22;52862;52.504;13.480;2023-03-31T04:43:52;11.00;99.90
51867;DHT22;52862;52.504;13.480;2023-03-31T04:46:19;10.80;99.90
51867;DHT22;52862;52.504;13.480;2023-03-31T04:48:46;10.60;99.90
51867;DHT22;52862;52.504;13.480;2023-03-31T04:51:13;10.70;99.90
51867;DHT22;52862;52.504;13.480;2023-03-31T04:53:40;10.70;99.90
51867;DHT22;52862;52.504;13.480;2023-03-31T04:56:07;10.80;99.90
51867;DHT22;52862;52.504;13.480;2023-03-31T04:58:34;11.00;99.90
51867;DHT22;52862;52.504;13.480;2023-03-31T05:01:01;10.20;99.90
51867;DHT22;52862;52.504;13.480;2023-03-31T05:03:27;10.80;99.90
51867;DHT22;52862;52.504;13.480;2023-03-31T05:05:54;10.90;99.90
51867;DHT22;52862;52.504;13.480;2023-03-31T05:08:22;10.80;99.90
51867;DHT22;52862;52.504;13.480;2023-03-31T05:10:48;10.90;99.90
51867;DHT22;52862;52.504;13.480;2023-03-31T05:13:15;10.80;99.90
51867;DHT22;52862;52.504;13.480;2023-03-31T05:15:42;10.80;99.90
51867;DHT22;52862;52.504;13.480;2023-03-31T05:18:10;10.80;99.90
51867;DHT22;52862;52.504;13.480;2023-03-31T05:20:37;10.80;99.90
51867;DHT22;52862;52.504;13.480;2023-03-31T05:23:03;10.90;99.90
51867;DHT22;52862;52.504;13.480;2023-03-31T05:25:31;10.80;99.90
51867;DHT22;52862;52.504;13.480;2023-03-31T05:27:59;10.70;99.90
51867;DHT22;52862;52.504;13.480;2023-03-31T05:30:26;10.70;99.90
51867;DHT22;52862;52.504;13.480;2023-03-31T05:32:54;10.70;99.90
51867;DHT22;52862;52.504;13.480;2023-03-31T05:35:21;10.70;99.90
51867;DHT22;52862;52.504;13.480;2023-03-31T05:37:51;10.70;99.90
51867;DHT22;52862;52.504;13.480;2023-03-31T05:40:17;10.90;99.90
51867;DHT22;52862;52.504;13.480;2023-03-31T05:42:44;10.70;99.90
51867;DHT22;52862;52.504;13.480;2023-03-31T05:45:11;10.90;99.90
51867;DHT22;52862;52.504;13.480;2023-03-31T05:47:38;10.70;99.90
51867;DHT22;52862;52.504;13.480;2023-03-31T05:50:05;10.80;99.90
51867;DHT22;52862;52.504;13.480;2023-03-31T05:52:34;10.80;99.90
51867;DHT22;52862;52.504;13.480;2023-03-31T05:55:01;11.00;99.90
51867;DHT22;52862;52.504;13.480;2023-03-31T05:57:28;11.10;99.90
51867;DHT22;52862;52.504;13.480;2023-03-31T05:59:55;11.20;99.90
51867;DHT22;52862;52.504;13.480;2023-03-31T06:02:22;11.30;99.90
51867;DHT22;52862;52.504;13.480;2023-03-31T06:04:49;11.30;99.90
51867;DHT22;52862;52.504;13.480;2023-03-31T06:07:15;11.40;99.90
51867;DHT22;52862;52.504;13.480;2023-03-31T06:09:42;11.30;99.90
51867;DHT22;52862;52.504;13.480;2023-03-31T06:12:09;11.40;99.90
51867;DHT22;52862;52.504;13.480;2023-03-31T06:14:39;11.20;99.90
51867;DHT22;52862;52.504;13.480;2023-03-31T06:17:06;11.10;99.90
51867;DHT22;52862;52.504;13.480;2023-03-31T06:19:33;11.20;99.90
51867;DHT22;52862;52.504;13.480;2023-03-31T06:22:00;11.20;99.90
51867;DHT22;52862;52.504;13.480;2023-03-31T06:24:26;11.30;99.90
51867;DHT22;52862;52.504;13.480;2023-03-31T06:26:53;11.40;99.90
51867;DHT22;52862;52.504;13.480;2023-03-31T06:29:20;11.50;99.90
51867;DHT22;52862;52.504;13.480;2023-03-31T06:31:47;11.60;99.90
51867;DHT22;52862;52.504;13.480;2023-03-31T06:34:14;11.60;99.90
51867;DHT22;52862;52.504;13.480;2023-03-31T06:36:40;11.50;99.90
51867;DHT22;52862;52.504;13.480;2023-03-31T06:44:01;11.60;99.90
51867;DHT22;52862;52.504;13.480;2023-03-31T06:51:22;11.90;99.90
51867;DHT22;52862;52.504;13.480;2023-03-31T06:53:49;12.20;99.90
51867;DHT22;52862;52.504;13.480;2023-03-31T06:56:18;12.50;99.90
51867;DHT22;52862;52.504;13.480;2023-03-31T06:58:45;12.30;99.90
51867;DHT22;52862;52.504;13.480;2023-03-31T07:01:11;12.70;99.90
51867;DHT22;52862;52.504;13.480;2023-03-31T07:03:38;13.20;99.90
51867;DHT22;52862;52.504;13.480;2023-03-31T07:06:05;12.50;99.90
51867;DHT22;52862;52.504;13.480;2023-03-31T07:08:33;12.50;99.90
51867;DHT22;52862;52.504;13.480;2023-03-31T07:11:00;12.60;99.90
51867;DHT22;52862;52.504;13.480;2023-03-31T07:13:27;12.60;99.90
51867;DHT22;52862;52.504;13.480;2023-03-31T07:15:54;12.40;99.90
51867;DHT22;52862;52.504;13.480;2023-03-31T07:18:21;12.80;99.90
51867;DHT22;52862;52.504;13.480;2023-03-31T07:20:51;12.90;99.90
51867;DHT22;52862;52.504;13.480;2023-03-31T07:23:18;12.60;99.90
51867;DHT22;52862;52.504;13.480;2023-03-31T07:25:46;12.90;99.90
51867;DHT22;52862;52.504;13.480;2023-03-31T07:28:13;12.80;99.90
51867;DHT22;52862;52.504;13.480;2023-03-31T07:30:40;13.60;99.90
51867;DHT22;52862;52.504;13.480;2023-03-31T07:33:07;13.30;99.90
51867;DHT22;52862;52.504;13.480;2023-03-31T07:35:37;13.20;99.90
51867;DHT22;52862;52.504;13.480;2023-03-31T07:38:04;13.60;99.90
51867;DHT22;52862;52.504;13.480;2023-03-31T07:40:30;13.00;99.90
51867;DHT22;52862;52.504;13.480;2023-03-31T07:42:58;13.30;99.90
51867;DHT22;52862;52.504;13.480;2023-03-31T07:45:25;13.30;99.90
51867;DHT22;52862;52.504;13.480;2023-03-31T07:50:20;13.10;99.90
51867;DHT22;52862;52.504;13.480;2023-03-31T07:52:47;13.10;99.90
51867;DHT22;52862;52.504;13.480;2023-03-31T07:55:14;13.30;99.90
51867;DHT22;52862;52.504;13.480;2023-03-31T07:57:41;13.70;99.90
51867;DHT22;52862;52.504;13.480;2023-03-31T08:00:11;13.30;99.90
51867;DHT22;52862;52.504;13.480;2023-03-31T08:02:39;13.90;99.90
51867;DHT22;52862;52.504;13.480;2023-03-31T08:05:07;14.30;99.90
51867;DHT22;52862;52.504;13.480;2023-03-31T08:07:35;13.90;99.90
51867;DHT22;52862;52.504;13.480;2023-03-31T08:10:03;14.00;99.90
51867;DHT22;52862;52.504;13.480;2023-03-31T08:12:30;14.30;99.90
51867;DHT22;52862;52.504;13.480;2023-03-31T08:14:57;14.10;99.90
51867;DHT22;52862;52.504;13.480;2023-03-31T08:17:39;13.90;99.90
51867;DHT22;52862;52.504;13.480;2023-03-31T08:20:07;13.70;99.90
51867;DHT22;52862;52.504;13.480;2023-03-31T08:22:35;13.70;99.90
51867;DHT22;52862;52.504;13.480;2023-03-31T08:25:02;13.50;99.90
51867;DHT22;52862;52.504;13.480;2023-03-31T08:27:32;13.70;99.90
51867;DHT22;52862;52.504;13.480;2023-03-31T08:32:30;13.70;99.90
51867;DHT22;52862;52.504;13.480;2023-03-31T08:35:01;14.10;99.90
51867;DHT22;52862;52.504;13.480;2023-03-31T08:37:30;14.30;99.90
51867;DHT22;52862;52.504;13.480;2023-03-31T08:39:57;14.50;99.90
51867;DHT22;52862;52.504;13.480;2023-03-31T08:42:34;16.20;99.90
51867;DHT22;52862;52.504;13.480;2023-03-31T08:45:05;14.40;99.90
51867;DHT22;52862;52.504;13.480;2023-03-31T08:47:33;14.70;99.90
51867;DHT22;52862;52.504;13.480;2023-03-31T08:50:07;14.70;99.90
51867;DHT22;52862;52.504;13.480;2023-03-31T08:52:39;14.50;99.90
51867;DHT22;52862;52.504;13.480;2023-03-31T08:55:11;14.40;99.90
51867;DHT22;52862;52.504;13.480;2023-03-31T08:57:46;14.50;99.90
51867;DHT22;52862;52.504;13.480;2023-03-31T09:00:17;14.40;99.90
51867;DHT22;52862;52.504;13.480;2023-03-31T09:02:49;14.10;99.90
51867;DHT22;52862;52.504;13.480;2023-03-31T09:05:50;14.30;99.90
51867;DHT22;52862;52.504;13.480;2023-03-31T09:08:40;14.40;99.90
51867;DHT22;52862;52.504;13.480;2023-03-31T09:11:10;14.60;99.90
51867;DHT22;52862;52.504;13.480;2023-03-31T09:14:04;16.00;99.90
51867;DHT22;52862;52.504;13.480;2023-03-31T09:16:37;14.10;99.90
51867;DHT22;52862;52.504;13.480;2023-03-31T09:19:12;14.00;99.90
51867;DHT22;52862;52.504;13.480;2023-03-31T09:21:43;14.60;99.90
51867;DHT22;52862;52.504;13.480;2023-03-31T09:24:15;14.20;99.90
51867;DHT22;52862;52.504;13.480;2023-03-31T09:26:47;14.30;99.90
51867;DHT22;52862;52.504;13.480;2023-03-31T09:29:17;14.50;99.90
51867;DHT22;52862;52.504;13.480;2023-03-31T09:31:45;14.70;99.90
51867;DHT22;52862;52.504;13.480;2023-03-31T09:34:15;15.40;99.90
51867;DHT22;52862;52.504;13.480;2023-03-31T09:36:43;16.10;99.90
51867;DHT22;52862;52.504;13.480;2023-03-31T09:39:12;16.00;99.90
51867;DHT22;52862;52.504;13.480;2023-03-31T09:41:42;15.60;99.90
51867;DHT22;52862;52.504;13.480;2023-03-31T09:44:24;16.00;99.90
51867;DHT22;52862;52.504;13.480;2023-03-31T09:46:52;16.20;99.90
51867;DHT22;52862;52.504;13.480;2023-03-31T09:49:47;16.10;99.90
51867;DHT22;52862;52.504;13.480;2023-03-31T09:52:26;16.00;99.90
51867;DHT22;52862;52.504;13.480;2023-03-31T09:54:54;15.70;99.90
51867;DHT22;52862;52.504;13.480;2023-03-31T09:57:32;15.60;99.90
51867;DHT22;52862;52.504;13.480;2023-03-31T10:00:17;15.40;99.90
51867;DHT22;52862;52.504;13.480;2023-03-31T10:02:48;15.50;99.90
51867;DHT22;52862;52.504;13.480;2023-03-31T10:05:36;15.80;99.90
51867;DHT22;52862;52.504;13.480;2023-03-31T10:08:20;16.20;99.90
51867;DHT22;52862;52.504;13.480;2023-03-31T10:10:50;16.40;99.90
51867;DHT22;52862;52.504;13.480;2023-03-31T10:13:19;15.30;99.90
51867;DHT22;52862;52.504;13.480;2023-03-31T10:15:51;15.40;99.90
51867;DHT22;52862;52.504;13.480;2023-03-31T10:18:19;14.80;99.90
51867;DHT22;52862;52.504;13.480;2023-03-31T10:20:49;14.80;99.90
51867;DHT22;52862;52.504;13.480;2023-03-31T10:23:22;14.80;99.90
51867;DHT22;52862;52.504;13.480;2023-03-31T10:25:50;14.90;99.90
51867;DHT22;52862;52.504;13.480;2023-03-31T10:28:17;14.90;99.90
51867;DHT22;52862;52.504;13.480;2023-03-31T10:30:48;15.00;99.90
51867;DHT22;52862;52.504;13.480;2023-03-31T10:33:22;15.10;99.90
51867;DHT22;52862;52.504;13.480;2023-03-31T10:35:54;15.00;99.90
51867;DHT22;52862;52.504;13.480;2023-03-31T10:38:26;15.20;99.90
51867;DHT22;52862;52.504;13.480;2023-03-31T10:40:56;14.90;99.90
51867;DHT22;52862;52.504;13.480;2023-03-31T10:43:28;14.70;99.90
51867;DHT22;52862;52.504;13.480;2023-03-31T10:45:56;14.70;99.90
51867;DHT22;52862;52.504;13.480;2023-03-31T10:48:26;14.70;99.90
51867;DHT22;52862;52.504;13.480;2023-03-31T10:50:54;14.70;99.90
51867;DHT22;52862;52.504;13.480;2023-03-31T10:53:25;14.50;99.90
51867;DHT22;52862;52.504;13.480;2023-03-31T10:56:03;14.30;99.90
51867;DHT22;52862;52.504;13.480;2023-03-31T10:59:00;14.20;99.90
51867;DHT22;52862;52.504;13.480;2023-03-31T11:01:42;14.30;99.90
51867;DHT22;52862;52.504;13.480;2023-03-31T11:04:36;14.70;99.90
51867;DHT22;52862;52.504;13.480;2023-03-31T11:07:13;14.60;99.90
51867;DHT22;52862;52.504;13.480;2023-03-31T11:09:52;14.60;99.90
51867;DHT22;52862;52.504;13.480;2023-03-31T11:12:28;14.40;99.90
51867;DHT22;52862;52.504;13.480;2023-03-31T11:15:06;14.70;99.90
51867;DHT22;52862;52.504;13.480;2023-03-31T11:17:49;14.60;99.90
51867;DHT22;52862;52.504;13.480;2023-03-31T11:20:24;14.60;99.90
51867;DHT22;52862;52.504;13.480;2023-03-31T11:23:02;14.80;99.90
51867;DHT22;52862;52.504;13.480;2023-03-31T11:25:38;15.00;99.90
51867;DHT22;52862;52.504;13.480;2023-03-31T11:28:30;15.00;99.90
51867;DHT22;52862;52.504;13.480;2023-03-31T11:31:10;14.90;99.90
51867;DHT22;52862;52.504;13.480;2023-03-31T11:34:02;14.90;99.90
51867;DHT22;52862;52.504;13.480;2023-03-31T11:36:48;14.70;99.90
51867;DHT22;52862;52.504;13.480;2023-03-31T11:39:26;14.70;99.90
51867;DHT22;52862;52.504;13.480;2023-03-31T11:41:58;14.70;99.90
51867;DHT22;52862;52.504;13.480;2023-03-31T11:44:30;15.20;99.90
51867;DHT22;52862;52.504;13.480;2023-03-31T11:47:03;14.70;99.90
51867;DHT22;52862;52.504;13.480;2023-03-31T11:49:32;14.70;99.90
51867;DHT22;52862;52.504;13.480;2023-03-31T11:52:06;14.70;99.90
51867;DHT22;52862;52.504;13.480;2023-03-31T11:54:37;14.70;99.90
51867;DHT22;52862;52.504;13.480;2023-03-31T11:57:11;14.60;99.90
51867;DHT22;52862;52.504;13.480;2023-03-31T11:59:41;14.60;99.90
51867;DHT22;52862;52.504;13.480;2023-03-31T12:02:14;14.90;99.90
51867;DHT22;52862;52.504;13.480;2023-03-31T12:04:44;15.00;99.90
51867;DHT22;52862;52.504;13.480;2023-03-31T12:07:21;15.10;99.90
51867;DHT22;52862;52.504;13.480;2023-03-31T12:09:54;14.90;99.90
51867;DHT22;52862;52.504;13.480;2023-03-31T12:12:30;15.20;99.90
51867;DHT22;52862;52.504;13.480;2023-03-31T12:15:05;15.00;99.90
51867;DHT22;52862;52.504;13.480;2023-03-31T12:17:37;14.70;99.90
51867;DHT22;52862;52.504;13.480;2023-03-31T12:20:13;14.60;99.90
51867;DHT22;52862;52.504;13.480;2023-03-31T12:22:43;14.60;99.90
51867;DHT22;52862;52.504;13.480;2023-03-31T12:25:12;14.40;99.90
51867;DHT22;52862;52.504;13.480;2023-03-31T12:27:41;14.80;99.90
51867;DHT22;52862;52.504;13.480;2023-03-31T12:30:11;15.00;99.90
51867;DHT22;52862;52.504;13.480;2023-03-31T12:32:42;15.10;99.90
51867;DHT22;52862;52.504;13.480;2023-03-31T12:35:15;15.10;99.90
51867;DHT22;52862;52.504;13.480;2023-03-31T12:38:06;15.00;99.90
51867;DHT22;52862;52.504;13.480;2023-03-31T12:40:42;14.70;99.90
51867;DHT22;52862;52.504;13.480;2023-03-31T12:46:09;14.10;99.90
51867;DHT22;52862;52.504;13.480;2023-03-31T12:48:53;14.00;99.90
51867;DHT22;52862;52.504;13.480;2023-03-31T12:51:37;13.60;99.90
51867;DHT22;52862;52.504;13.480;2023-03-31T12:54:19;12.90;99.90
51867;DHT22;52862;52.504;13.480;2023-03-31T12:57:12;12.50;99.90
51867;DHT22;52862;52.504;13.480;2023-03-31T12:59:41;12.20;99.90
51867;DHT22;52862;52.504;13.480;2023-03-31T13:02:24;11.90;99.90
51867;DHT22;52862;52.504;13.480;2023-03-31T13:04:51;11.40;99.90
51867;DHT22;52862;52.504;13.480;2023-03-31T13:07:36;12.10;99.90
51867;DHT22;52862;52.504;13.480;2023-03-31T13:10:27;12.20;99.90
51867;DHT22;52862;52.504;13.480;2023-03-31T13:13:01;12.20;99.90
51867;DHT22;52862;52.504;13.480;2023-03-31T13:15:30;12.00;99.90
51867;DHT22;52862;52.504;13.480;2023-03-31T13:17:58;12.20;99.90
51867;DHT22;52862;52.504;13.480;2023-03-31T13:20:31;12.10;99.90
51867;DHT22;52862;52.504;13.480;2023-03-31T13:23:00;12.20;99.90
51867;DHT22;52862;52.504;13.480;2023-03-31T13:25:46;12.40;99.90
51867;DHT22;52862;52.504;13.480;2023-03-31T13:31:03;12.00;99.90
51867;DHT22;52862;52.504;13.480;2023-03-31T13:33:33;12.00;99.90
51867;DHT22;52862;52.504;13.480;2023-03-31T13:36:22;11.90;99.90
51867;DHT22;52862;52.504;13.480;2023-03-31T13:39:05;11.70;99.90
51867;DHT22;52862;52.504;13.480;2023-03-31T13:41:50;11.50;99.90
51867;DHT22;52862;52.504;13.480;2023-03-31T13:44:48;11.90;99.90
51867;DHT22;52862;52.504;13.480;2023-03-31T13:50:45;11.30;99.90
51867;DHT22;52862;52.504;13.480;2023-03-31T13:53:27;11.10;99.90
51867;DHT22;52862;52.504;13.480;2023-03-31T13:56:07;11.30;99.90
51867;DHT22;52862;52.504;13.480;2023-03-31T14:01:55;11.20;99.90
51867;DHT22;52862;52.504;13.480;2023-03-31T14:07:33;11.40;99.90
51867;DHT22;52862;52.504;13.480;2023-03-31T14:10:02;11.20;99.90
51867;DHT22;52862;52.504;13.480;2023-03-31T14:12:31;11.40;99.90
51867;DHT22;52862;52.504;13.480;2023-03-31T14:17:27;11.10;99.90
51867;DHT22;52862;52.504;13.480;2023-03-31T14:20:08;12.50;99.90
51867;DHT22;52862;52.504;13.480;2023-03-31T14:22:46;11.20;99.90
51867;DHT22;52862;52.504;13.480;2023-03-31T14:25:20;10.70;99.90
51867;DHT22;52862;52.504;13.480;2023-03-31T14:27:59;11.00;99.90
51867;DHT22;52862;52.504;13.480;2023-03-31T14:30:38;11.00;99.90
51867;DHT22;52862;52.504;13.480;2023-03-31T14:33:19;10.80;99.90
51867;DHT22;52862;52.504;13.480;2023-03-31T14:35:56;10.40;99.90
51867;DHT22;52862;52.504;13.480;2023-03-31T14:38:27;11.00;99.90
51867;DHT22;52862;52.504;13.480;2023-03-31T14:40:55;10.90;99.90
51867;DHT22;52862;52.504;13.480;2023-03-31T14:43:28;11.10;99.90
51867;DHT22;52862;52.504;13.480;2023-03-31T14:45:59;11.00;99.90
51867;DHT22;52862;52.504;13.480;2023-03-31T14:48:27;11.00;99.90
51867;DHT22;52862;52.504;13.480;2023-03-31T14:50:56;11.00;99.90
51867;DHT22;52862;52.504;13.480;2023-03-31T14:53:25;10.50;99.90
51867;DHT22;52862;52.504;13.480;2023-03-31T14:55:59;11.00;99.90
51867;DHT22;52862;52.504;13.480;2023-03-31T14:58:29;11.10;99.90
51867;DHT22;52862;52.504;13.480;2023-03-31T15:00:57;11.30;99.90
51867;DHT22;52862;52.504;13.480;2023-03-31T15:03:26;12.50;99.90
51867;DHT22;52862;52.504;13.480;2023-03-31T15:05:56;10.80;99.90
51867;DHT22;52862;52.504;13.480;2023-03-31T15:08:24;10.80;99.90
51867;DHT22;52862;52.504;13.480;2023-03-31T15:10:54;11.10;99.90
51867;DHT22;52862;52.504;13.480;2023-03-31T15:13:40;10.50;99.90
51867;DHT22;52862;52.504;13.480;2023-03-31T15:16:20;10.50;99.90
51867;DHT22;52862;52.504;13.480;2023-03-31T15:18:47;10.90;99.90
51867;DHT22;52862;52.504;13.480;2023-03-31T15:21:19;11.20;99.90
51867;DHT22;52862;52.504;13.480;2023-03-31T15:23:50;11.30;99.90
51867;DHT22;52862;52.504;13.480;2023-03-31T15:26:19;11.20;99.90
51867;DHT22;52862;52.504;13.480;2023-03-31T15:28:59;11.00;99.90
51867;DHT22;52862;52.504;13.480;2023-03-31T15:31:28;10.90;99.90
51867;DHT22;52862;52.504;13.480;2023-03-31T15:33:56;11.00;99.90
51867;DHT22;52862;52.504;13.480;2023-03-31T15:36:24;11.10;99.90
51867;DHT22;52862;52.504;13.480;2023-03-31T15:38:56;11.30;99.90
51867;DHT22;52862;52.504;13.480;2023-03-31T15:41:28;11.10;99.90
51867;DHT22;52862;52.504;13.480;2023-03-31T15:44:27;11.00;99.90
51867;DHT22;52862;52.504;13.480;2023-03-31T15:47:16;11.10;99.90
51867;DHT22;52862;52.504;13.480;2023-03-31T15:49:51;11.10;99.90
51867;DHT22;52862;52.504;13.480;2023-03-31T15:52:30;12.70;99.90
51867;DHT22;52862;52.504;13.480;2023-03-31T15:54:59;11.30;99.90
51867;DHT22;52862;52.504;13.480;2023-03-31T15:57:32;12.60;99.90
51867;DHT22;52862;52.504;13.480;2023-03-31T15:59:59;11.00;99.90
51867;DHT22;52862;52.504;13.480;2023-03-31T16:02:41;11.30;99.90
51867;DHT22;52862;52.504;13.480;2023-03-31T16:05:22;10.70;99.90
51867;DHT22;52862;52.504;13.480;2023-03-31T16:07:55;11.00;99.90
51867;DHT22;52862;52.504;13.480;2023-03-31T16:10:24;10.10;99.90
51867;DHT22;52862;52.504;13.480;2023-03-31T16:12:54;11.10;99.90
51867;DHT22;52862;52.504;13.480;2023-03-31T16:15:29;11.20;99.90
51867;DHT22;52862;52.504;13.480;2023-03-31T16:18:00;10.90;99.90
51867;DHT22;52862;52.504;13.480;2023-03-31T16:20:31;10.90;99.90
51867;DHT22;52862;52.504;13.480;2023-03-31T16:23:11;11.10;99.90